sensor_id;sensor_type;location;lat;lon;timestamp;pressure;altitude;pressure_sealevel;temperature;humidity
52797;BME280;38666;43.348;12.584;2022-07-23T06:56:29;96038.47;;;26.65;43.97
52797;BME280;38666;43.348;12.584;2022-07-23T06:58:54;96026.84;;;26.84;43.40
52797;BME280;38666;43.348;12.584;2022-07-23T07:01:20;96018.16;;;26.82;43.59
52797;BME280;38666;43.348;12.584;2022-07-23T07:03:46;96026.25;;;27.18;42.91
52797;BME280;38666;43.348;12.584;2022-07-23T07:06:12;96015.34;;;27.32;42.66
52797;BME280;38666;43.348;12.584;2022-07-23T07:08:37;96017.16;;;27.40;42.43
52797;BME280;38666;43.348;12.584;2022-07-23T07:11:03;96023.00;;;27.43;42.50
52797;BME280;38666;43.348;12.584;2022-07-23T07:13:28;96017.63;;;27.39;43.02
52797;BME280;38666;43.348;12.584;2022-07-23T07:15:54;96015.13;;;27.52;42.23
52797;BME280;38666;43.348;12.584;2022-07-23T07:18:19;96020.28;;;27.83;41.75
52797;BME280;38666;43.348;12.584;2022-07-23T07:20:44;96020.25;;;27.71;42.03
52797;BME280;38666;43.348;12.584;2022-07-23T07:23:10;96020.03;;;27.81;41.76
52797;BME280;38666;43.348;12.584;2022-07-23T07:25:35;96018.50;;;27.85;41.66
52797;BME280;38666;43.348;12.584;2022-07-23T07:28:02;96020.53;;;28.08;40.76
52797;BME280;38666;43.348;12.584;2022-07-23T07:30:27;96009.06;;;28.40;39.75
52797;BME280;38666;43.348;12.584;2022-07-23T07:32:52;96011.84;;;28.29;40.07
52797;BME280;38666;43.348;12.584;2022-07-23T07:35:18;96003.19;;;28.38;40.60
52797;BME280;38666;43.348;12.584;2022-07-23T07:37:43;96002.63;;;28.57;39.30
52797;BME280;38666;43.348;12.584;2022-07-23T07:40:09;96011.34;;;28.36;39.19
52797;BME280;38666;43.348;12.584;2022-07-23T07:42:35;96016.69;;;28.34;38.84
52797;BME280;38666;43.348;12.584;2022-07-23T07:45:08;96009.06;;;28.40;39.49
52797;BME280;38666;43.348;12.584;2022-07-23T07:47:34;96008.50;;;28.59;39.04
52797;BME280;38666;43.348;12.584;2022-07-23T07:49:59;96011.78;;;28.69;37.78
52797;BME280;38666;43.348;12.584;2022-07-23T07:52:26;96008.47;;;28.70;36.76
52797;BME280;38666;43.348;12.584;2022-07-23T07:54:51;96012.72;;;28.94;36.77
52797;BME280;38666;43.348;12.584;2022-07-23T07:57:17;96009.91;;;28.94;37.28
52797;BME280;38666;43.348;12.584;2022-07-23T07:59:42;96020.59;;;29.13;37.65
52797;BME280;38666;43.348;12.584;2022-07-23T08:02:07;96014.91;;;29.25;36.80
52797;BME280;38666;43.348;12.584;2022-07-23T08:04:33;96009.44;;;29.44;35.76
52797;BME280;38666;43.348;12.584;2022-07-23T08:06:58;96021.50;;;29.33;36.46
52797;BME280;38666;43.348;12.584;2022-07-23T08:09:24;96013.00;;;29.44;36.31
52797;BME280;38666;43.348;12.584;2022-07-23T08:11:49;96016.06;;;29.47;36.01
52797;BME280;38666;43.348;12.584;2022-07-23T08:14:17;96013.44;;;29.60;36.02
52797;BME280;38666;43.348;12.584;2022-07-23T08:16:42;96010.69;;;29.49;36.05
52797;BME280;38666;43.348;12.584;2022-07-23T08:19:08;96009.16;;;29.48;36.23
52797;BME280;38666;43.348;12.584;2022-07-23T08:21:33;96012.41;;;29.63;35.74
52797;BME280;38666;43.348;12.584;2022-07-23T08:23:59;96013.25;;;29.47;36.22
52797;BME280;38666;43.348;12.584;2022-07-23T08:26:24;96014.88;;;29.78;35.61
52797;BME280;38666;43.348;12.584;2022-07-23T08:28:49;96015.16;;;29.75;35.20
52797;BME280;38666;43.348;12.584;2022-07-23T08:31:15;96007.41;;;29.81;35.11
52797;BME280;38666;43.348;12.584;2022-07-23T08:33:42;96003.91;;;30.06;35.10
52797;BME280;38666;43.348;12.584;2022-07-23T08:36:08;96020.28;;;30.38;34.22
52797;BME280;38666;43.348;12.584;2022-07-23T08:38:34;96011.16;;;30.26;34.44
52797;BME280;38666;43.348;12.584;2022-07-23T08:41:01;96005.84;;;30.47;33.83
52797;BME280;38666;43.348;12.584;2022-07-23T08:43:32;96014.13;;;30.39;33.91
52797;BME280;38666;43.348;12.584;2022-07-23T08:45:59;96004.44;;;30.35;34.07
52797;BME280;38666;43.348;12.584;2022-07-23T08:48:26;96007.44;;;30.43;34.28
52797;BME280;38666;43.348;12.584;2022-07-23T08:50:54;96004.72;;;30.56;33.63
52797;BME280;38666;43.348;12.584;2022-07-23T08:53:21;96006.69;;;31.11;33.40
52797;BME280;38666;43.348;12.584;2022-07-23T08:55:50;96007.06;;;31.21;32.62
52797;BME280;38666;43.348;12.584;2022-07-23T08:58:16;96005.16;;;30.91;33.27
52797;BME280;38666;43.348;12.584;2022-07-23T09:00:42;96004.75;;;31.00;32.92
52797;BME280;38666;43.348;12.584;2022-07-23T09:03:15;96002.03;;;30.45;33.44
52797;BME280;38666;43.348;12.584;2022-07-23T09:05:41;96005.09;;;30.72;33.26
52797;BME280;38666;43.348;12.584;2022-07-23T09:08:18;96007.09;;;30.27;34.47
52797;BME280;38666;43.348;12.584;2022-07-23T09:10:56;96004.47;;;30.79;33.35
52797;BME280;38666;43.348;12.584;2022-07-23T09:16:18;96009.59;;;31.25;32.57
52797;BME280;38666;43.348;12.584;2022-07-23T09:23:53;96006.97;;;30.88;32.46
52797;BME280;38666;43.348;12.584;2022-07-23T09:26:21;96001.88;;;31.06;32.39
52797;BME280;38666;43.348;12.584;2022-07-23T09:28:52;96005.69;;;30.90;32.13
52797;BME280;38666;43.348;12.584;2022-07-23T09:31:18;96005.78;;;31.03;32.45
52797;BME280;38666;43.348;12.584;2022-07-23T09:33:44;95998.63;;;31.02;30.65
52797;BME280;38666;43.348;12.584;2022-07-23T09:36:09;95996.88;;;31.38;30.72
52797;BME280;38666;43.348;12.584;2022-07-23T09:38:48;95997.09;;;31.59;30.70
52797;BME280;38666;43.348;12.584;2022-07-23T09:41:14;95995.75;;;31.79;30.29
52797;BME280;38666;43.348;12.584;2022-07-23T09:43:39;95998.97;;;31.70;30.02
52797;BME280;38666;43.348;12.584;2022-07-23T09:46:21;95995.34;;;31.89;29.92
52797;BME280;38666;43.348;12.584;2022-07-23T09:48:49;95996.50;;;32.13;26.01
52797;BME280;38666;43.348;12.584;2022-07-23T09:51:14;95987.53;;;32.41;26.95
52797;BME280;38666;43.348;12.584;2022-07-23T09:53:44;95987.78;;;32.71;25.44
52797;BME280;38666;43.348;12.584;2022-07-23T09:56:11;95993.78;;;32.67;23.74
52797;BME280;38666;43.348;12.584;2022-07-23T09:58:40;95988.75;;;33.00;22.42
52797;BME280;38666;43.348;12.584;2022-07-23T10:01:13;95997.09;;;33.20;22.07
52797;BME280;38666;43.348;12.584;2022-07-23T10:03:41;95988.94;;;33.16;24.01
52797;BME280;38666;43.348;12.584;2022-07-23T10:06:08;95988.09;;;32.53;23.46
52797;BME280;38666;43.348;12.584;2022-07-23T10:08:34;95981.59;;;32.72;22.86
52797;BME280;38666;43.348;12.584;2022-07-23T10:11:01;95978.41;;;32.89;23.14
52797;BME280;38666;43.348;12.584;2022-07-23T10:13:27;95976.75;;;33.08;23.23
52797;BME280;38666;43.348;12.584;2022-07-23T10:16:12;95981.34;;;33.11;22.85
52797;BME280;38666;43.348;12.584;2022-07-23T10:18:38;95981.72;;;33.29;21.20
52797;BME280;38666;43.348;12.584;2022-07-23T10:21:06;95980.25;;;33.49;21.89
52797;BME280;38666;43.348;12.584;2022-07-23T10:23:40;95970.53;;;33.58;21.72
52797;BME280;38666;43.348;12.584;2022-07-23T10:26:23;95970.84;;;33.33;21.69
52797;BME280;38666;43.348;12.584;2022-07-23T10:36:44;95967.44;;;32.99;22.01
52797;BME280;38666;43.348;12.584;2022-07-23T10:39:20;95966.56;;;33.05;21.89
52797;BME280;38666;43.348;12.584;2022-07-23T10:41:47;95962.47;;;33.41;21.89
52797;BME280;38666;43.348;12.584;2022-07-23T10:44:21;95962.66;;;33.64;22.58
52797;BME280;38666;43.348;12.584;2022-07-23T10:46:57;95959.25;;;33.79;21.29
52797;BME280;38666;43.348;12.584;2022-07-23T10:49:33;95958.09;;;33.96;22.32
52797;BME280;38666;43.348;12.584;2022-07-23T10:54:53;95947.34;;;34.23;21.62
52797;BME280;38666;43.348;12.584;2022-07-23T10:57:24;95951.69;;;34.25;21.78
52797;BME280;38666;43.348;12.584;2022-07-23T11:02:32;95946.44;;;33.78;22.14
52797;BME280;38666;43.348;12.584;2022-07-23T11:05:09;95937.34;;;33.37;23.12
52797;BME280;38666;43.348;12.584;2022-07-23T11:07:36;95934.53;;;33.80;23.59
52797;BME280;38666;43.348;12.584;2022-07-23T11:10:03;95929.59;;;34.23;22.28
52797;BME280;38666;43.348;12.584;2022-07-23T11:15:14;95928.41;;;34.77;21.66
52797;BME280;38666;43.348;12.584;2022-07-23T11:25:04;95921.34;;;35.15;22.44
52797;BME280;38666;43.348;12.584;2022-07-23T11:27:44;95911.69;;;35.10;21.81
52797;BME280;38666;43.348;12.584;2022-07-23T11:30:36;95919.16;;;35.37;21.29
52797;BME280;38666;43.348;12.584;2022-07-23T11:35:42;95919.16;;;35.29;20.20
52797;BME280;38666;43.348;12.584;2022-07-23T11:38:18;95909.91;;;35.36;20.69
52797;BME280;38666;43.348;12.584;2022-07-23T11:40:46;95900.59;;;35.28;21.10
52797;BME280;38666;43.348;12.584;2022-07-23T11:43:13;95909.25;;;35.14;19.92
52797;BME280;38666;43.348;12.584;2022-07-23T11:45:48;95896.75;;;35.17;20.38
52797;BME280;38666;43.348;12.584;2022-07-23T11:48:25;95906.31;;;35.44;19.99
52797;BME280;38666;43.348;12.584;2022-07-23T11:50:52;95904.81;;;35.66;19.63
52797;BME280;38666;43.348;12.584;2022-07-23T11:53:26;95896.28;;;35.66;18.04
52797;BME280;38666;43.348;12.584;2022-07-23T11:55:53;95893.84;;;35.78;18.83
52797;BME280;38666;43.348;12.584;2022-07-23T11:58:20;95885.53;;;35.80;17.60
52797;BME280;38666;43.348;12.584;2022-07-23T12:00:46;95885.31;;;35.78;17.98
52797;BME280;38666;43.348;12.584;2022-07-23T12:03:11;95878.13;;;35.93;15.23
52797;BME280;38666;43.348;12.584;2022-07-23T12:05:38;95874.91;;;35.88;14.90
52797;BME280;38666;43.348;12.584;2022-07-23T12:08:06;95885.69;;;35.74;14.75
52797;BME280;38666;43.348;12.584;2022-07-23T12:10:39;95887.38;;;35.62;16.00
52797;BME280;38666;43.348;12.584;2022-07-23T12:13:12;95880.22;;;35.69;16.12
52797;BME280;38666;43.348;12.584;2022-07-23T12:15:39;95874.38;;;35.90;16.21
52797;BME280;38666;43.348;12.584;2022-07-23T12:18:08;95874.91;;;36.04;15.58
52797;BME280;38666;43.348;12.584;2022-07-23T12:20:42;95874.53;;;36.00;16.43
52797;BME280;38666;43.348;12.584;2022-07-23T12:23:11;95876.03;;;35.62;16.98
52797;BME280;38666;43.348;12.584;2022-07-23T12:25:41;95866.38;;;35.57;17.36
52797;BME280;38666;43.348;12.584;2022-07-23T12:28:12;95859.00;;;35.70;17.31
52797;BME280;38666;43.348;12.584;2022-07-23T12:33:10;95860.84;;;36.37;16.03
52797;BME280;38666;43.348;12.584;2022-07-23T12:35:39;95850.81;;;36.36;15.74
52797;BME280;38666;43.348;12.584;2022-07-23T12:38:14;95857.84;;;36.69;15.80
52797;BME280;38666;43.348;12.584;2022-07-23T12:43:11;95848.41;;;35.86;14.85
52797;BME280;38666;43.348;12.584;2022-07-23T12:48:16;95866.03;;;36.65;15.11
52797;BME280;38666;43.348;12.584;2022-07-23T12:50:49;95849.69;;;36.81;15.41
52797;BME280;38666;43.348;12.584;2022-07-23T12:53:23;95852.00;;;36.67;15.81
52797;BME280;38666;43.348;12.584;2022-07-23T12:55:50;95861.09;;;37.06;15.64
52797;BME280;38666;43.348;12.584;2022-07-23T12:58:20;95849.31;;;36.84;15.39
52797;BME280;38666;43.348;12.584;2022-07-23T13:01:04;95848.75;;;36.29;15.52
52797;BME280;38666;43.348;12.584;2022-07-23T13:03:40;95847.22;;;36.28;15.30
52797;BME280;38666;43.348;12.584;2022-07-23T13:06:08;95855.78;;;36.77;14.78
52797;BME280;38666;43.348;12.584;2022-07-23T13:08:37;95851.78;;;37.65;15.13
52797;BME280;38666;43.348;12.584;2022-07-23T13:11:04;95859.47;;;37.54;14.92
52797;BME280;38666;43.348;12.584;2022-07-23T13:13:32;95854.91;;;37.59;14.49
52797;BME280;38666;43.348;12.584;2022-07-23T13:15:59;95841.25;;;37.57;14.98
52797;BME280;38666;43.348;12.584;2022-07-23T13:18:26;95854.81;;;37.92;14.94
52797;BME280;38666;43.348;12.584;2022-07-23T13:20:53;95843.78;;;37.45;16.80
52797;BME280;38666;43.348;12.584;2022-07-23T13:23:19;95844.16;;;37.75;16.25
52797;BME280;38666;43.348;12.584;2022-07-23T13:25:45;95840.72;;;37.77;15.21
52797;BME280;38666;43.348;12.584;2022-07-23T13:28:11;95829.50;;;37.53;14.88
52797;BME280;38666;43.348;12.584;2022-07-23T13:30:38;95832.88;;;38.03;15.36
52797;BME280;38666;43.348;12.584;2022-07-23T13:33:03;95830.97;;;38.41;15.71
52797;BME280;38666;43.348;12.584;2022-07-23T13:35:30;95832.69;;;38.18;16.33
52797;BME280;38666;43.348;12.584;2022-07-23T13:37:55;95834.72;;;38.08;16.07
52797;BME280;38666;43.348;12.584;2022-07-23T13:40:22;95827.66;;;38.62;15.62
52797;BME280;38666;43.348;12.584;2022-07-23T13:42:47;95835.13;;;39.03;14.63
52797;BME280;38666;43.348;12.584;2022-07-23T13:45:13;95823.19;;;38.87;14.85
52797;BME280;38666;43.348;12.584;2022-07-23T13:47:38;95826.41;;;38.73;15.24
52797;BME280;38666;43.348;12.584;2022-07-23T13:50:04;95827.06;;;38.64;14.13
52797;BME280;38666;43.348;12.584;2022-07-23T13:52:30;95829.09;;;38.71;13.42
52797;BME280;38666;43.348;12.584;2022-07-23T13:54:56;95824.63;;;39.33;13.06
52797;BME280;38666;43.348;12.584;2022-07-23T13:57:22;95818.03;;;39.51;13.04
52797;BME280;38666;43.348;12.584;2022-07-23T13:59:47;95819.34;;;39.77;13.09
52797;BME280;38666;43.348;12.584;2022-07-23T14:02:15;95814.53;;;39.80;13.63
52797;BME280;38666;43.348;12.584;2022-07-23T14:04:41;95810.75;;;39.77;13.77
52797;BME280;38666;43.348;12.584;2022-07-23T14:07:07;95808.06;;;39.79;13.49
52797;BME280;38666;43.348;12.584;2022-07-23T14:09:32;95798.78;;;40.28;12.76
52797;BME280;38666;43.348;12.584;2022-07-23T14:11:59;95810.22;;;40.28;13.11
52797;BME280;38666;43.348;12.584;2022-07-23T14:14:24;95797.28;;;40.37;12.75
52797;BME280;38666;43.348;12.584;2022-07-23T14:16:50;95804.34;;;40.16;13.29
52797;BME280;38666;43.348;12.584;2022-07-23T14:19:15;95798.63;;;40.16;13.28
52797;BME280;38666;43.348;12.584;2022-07-23T14:21:41;95806.00;;;40.19;13.44
52797;BME280;38666;43.348;12.584;2022-07-23T14:24:07;95794.44;;;40.37;14.05
52797;BME280;38666;43.348;12.584;2022-07-23T14:26:32;95781.13;;;40.82;13.54
52797;BME280;38666;43.348;12.584;2022-07-23T14:28:58;95792.91;;;40.36;13.73
52797;BME280;38666;43.348;12.584;2022-07-23T14:31:23;95794.44;;;40.17;14.44
52797;BME280;38666;43.348;12.584;2022-07-23T14:33:50;95785.84;;;40.37;14.33
52797;BME280;38666;43.348;12.584;2022-07-23T14:36:16;95780.84;;;39.88;15.48
52797;BME280;38666;43.348;12.584;2022-07-23T14:38:41;95786.84;;;39.72;15.72
52797;BME280;38666;43.348;12.584;2022-07-23T14:41:07;95782.50;;;40.51;15.58
52797;BME280;38666;43.348;12.584;2022-07-23T14:43:33;95782.19;;;40.66;15.13
52797;BME280;38666;43.348;12.584;2022-07-23T14:45:59;95782.22;;;40.27;15.51
52797;BME280;38666;43.348;12.584;2022-07-23T14:48:25;95789.28;;;40.06;15.86
52797;BME280;38666;43.348;12.584;2022-07-23T14:50:51;95778.47;;;40.34;15.74
52797;BME280;38666;43.348;12.584;2022-07-23T14:53:16;95776.06;;;40.20;16.12
52797;BME280;38666;43.348;12.584;2022-07-23T14:55:42;95784.19;;;38.99;17.17
52797;BME280;38666;43.348;12.584;2022-07-23T14:58:07;95779.66;;;38.41;18.04
52797;BME280;38666;43.348;12.584;2022-07-23T15:00:33;95778.91;;;38.96;17.50
52797;BME280;38666;43.348;12.584;2022-07-23T15:02:58;95764.22;;;38.99;17.63
52797;BME280;38666;43.348;12.584;2022-07-23T15:05:24;95766.56;;;38.02;18.74
52797;BME280;38666;43.348;12.584;2022-07-23T15:07:49;95764.56;;;37.34;18.42
52797;BME280;38666;43.348;12.584;2022-07-23T15:10:15;95758.66;;;37.57;18.83
52797;BME280;38666;43.348;12.584;2022-07-23T15:12:42;95758.09;;;38.30;18.34
52797;BME280;38666;43.348;12.584;2022-07-23T15:15:08;95762.78;;;38.17;18.44
52797;BME280;38666;43.348;12.584;2022-07-23T15:17:34;95751.66;;;37.76;18.68
52797;BME280;38666;43.348;12.584;2022-07-23T15:19:59;95754.72;;;37.70;18.82
52797;BME280;38666;43.348;12.584;2022-07-23T15:22:25;95749.44;;;38.20;18.69
52797;BME280;38666;43.348;12.584;2022-07-23T15:24:50;95747.66;;;39.25;17.46
52797;BME280;38666;43.348;12.584;2022-07-23T15:27:16;95751.75;;;39.42;17.46
52797;BME280;38666;43.348;12.584;2022-07-23T15:29:43;95750.03;;;39.96;16.22
52797;BME280;38666;43.348;12.584;2022-07-23T15:32:09;95753.41;;;39.45;17.13
52797;BME280;38666;43.348;12.584;2022-07-23T15:34:36;95755.16;;;38.20;18.28
52797;BME280;38666;43.348;12.584;2022-07-23T15:37:01;95752.00;;;37.98;18.07
52797;BME280;38666;43.348;12.584;2022-07-23T15:39:27;95742.09;;;37.99;18.28
52797;BME280;38666;43.348;12.584;2022-07-23T15:41:53;95735.50;;;37.97;18.56
52797;BME280;38666;43.348;12.584;2022-07-23T15:44:18;95742.56;;;38.41;18.06
52797;BME280;38666;43.348;12.584;2022-07-23T15:46:44;95740.13;;;39.20;17.27
52797;BME280;38666;43.348;12.584;2022-07-23T15:49:09;95745.63;;;39.08;16.92
52797;BME280;38666;43.348;12.584;2022-07-23T15:51:35;95737.41;;;37.76;18.19
52797;BME280;38666;43.348;12.584;2022-07-23T15:54:00;95728.91;;;36.74;19.58
52797;BME280;38666;43.348;12.584;2022-07-23T15:56:25;95739.97;;;37.21;18.95
52797;BME280;38666;43.348;12.584;2022-07-23T15:58:51;95740.56;;;37.19;19.20
52797;BME280;38666;43.348;12.584;2022-07-23T16:01:16;95737.00;;;37.37;19.35
52797;BME280;38666;43.348;12.584;2022-07-23T16:03:42;95737.19;;;37.39;18.90
52797;BME280;38666;43.348;12.584;2022-07-23T16:06:08;95734.59;;;37.07;19.24
52797;BME280;38666;43.348;12.584;2022-07-23T16:08:34;95736.56;;;36.97;19.79
52797;BME280;38666;43.348;12.584;2022-07-23T16:10:59;95735.22;;;36.98;19.66
52797;BME280;38666;43.348;12.584;2022-07-23T16:13:25;95734.09;;;37.19;18.80
52797;BME280;38666;43.348;12.584;2022-07-23T16:15:51;95731.78;;;37.25;19.13
52797;BME280;38666;43.348;12.584;2022-07-23T16:18:20;95735.16;;;37.31;19.76
52797;BME280;38666;43.348;12.584;2022-07-23T16:20:48;95726.97;;;37.36;19.34
52797;BME280;38666;43.348;12.584;2022-07-23T16:23:14;95731.09;;;37.17;19.31
52797;BME280;38666;43.348;12.584;2022-07-23T16:25:40;95732.44;;;36.90;19.33
52797;BME280;38666;43.348;12.584;2022-07-23T16:28:06;95739.78;;;36.68;19.41
52797;BME280;38666;43.348;12.584;2022-07-23T16:30:32;95732.81;;;36.61;19.49
52797;BME280;38666;43.348;12.584;2022-07-23T16:32:59;95733.06;;;36.47;19.92
52797;BME280;38666;43.348;12.584;2022-07-23T16:35:25;95730.78;;;36.46;20.04
52797;BME280;38666;43.348;12.584;2022-07-23T16:37:51;95727.47;;;36.24;20.95
52797;BME280;38666;43.348;12.584;2022-07-23T16:40:17;95735.13;;;36.06;21.02
52797;BME280;38666;43.348;12.584;2022-07-23T16:42:42;95741.59;;;35.90;22.03
52797;BME280;38666;43.348;12.584;2022-07-23T16:45:08;95738.88;;;36.08;21.73
52797;BME280;38666;43.348;12.584;2022-07-23T16:47:35;95741.38;;;36.04;22.30
52797;BME280;38666;43.348;12.584;2022-07-23T16:50:00;95748.50;;;35.56;22.97
52797;BME280;38666;43.348;12.584;2022-07-23T16:52:27;95735.84;;;35.26;23.34
52797;BME280;38666;43.348;12.584;2022-07-23T16:54:52;95738.09;;;35.04;23.91
52797;BME280;38666;43.348;12.584;2022-07-23T16:57:18;95750.53;;;34.85;24.53
52797;BME280;38666;43.348;12.584;2022-07-23T16:59:43;95745.84;;;34.96;24.64
52797;BME280;38666;43.348;12.584;2022-07-23T17:02:09;95743.56;;;35.02;24.47
52797;BME280;38666;43.348;12.584;2022-07-23T17:04:34;95754.50;;;34.82;25.22
52797;BME280;38666;43.348;12.584;2022-07-23T17:07:00;95763.50;;;34.57;25.68
52797;BME280;38666;43.348;12.584;2022-07-23T17:09:31;95752.72;;;34.55;25.88
52797;BME280;38666;43.348;12.584;2022-07-23T17:11:56;95752.53;;;34.45;25.71
52797;BME280;38666;43.348;12.584;2022-07-23T17:14:22;95754.00;;;34.39;25.96
52797;BME280;38666;43.348;12.584;2022-07-23T17:16:48;95756.16;;;34.17;25.94
52797;BME280;38666;43.348;12.584;2022-07-23T17:19:13;95758.56;;;34.05;26.25
52797;BME280;38666;43.348;12.584;2022-07-23T17:21:39;95767.09;;;34.13;26.43
52797;BME280;38666;43.348;12.584;2022-07-23T17:24:04;95769.34;;;34.14;26.34
52797;BME280;38666;43.348;12.584;2022-07-23T17:26:30;95766.44;;;34.28;25.63
52797;BME280;38666;43.348;12.584;2022-07-23T17:28:58;95772.38;;;34.08;25.71
52797;BME280;38666;43.348;12.584;2022-07-23T17:31:23;95765.53;;;34.04;25.88
52797;BME280;38666;43.348;12.584;2022-07-23T17:33:49;95765.50;;;33.96;25.58
52797;BME280;38666;43.348;12.584;2022-07-23T17:36:15;95779.47;;;33.94;25.61
52797;BME280;38666;43.348;12.584;2022-07-23T17:38:40;95779.38;;;33.78;25.52
52797;BME280;38666;43.348;12.584;2022-07-23T17:41:06;95774.91;;;33.91;25.74
52797;BME280;38666;43.348;12.584;2022-07-23T17:43:32;95779.75;;;33.74;25.76
52797;BME280;38666;43.348;12.584;2022-07-23T17:45:57;95780.22;;;33.65;26.01
52797;BME280;38666;43.348;12.584;2022-07-23T17:48:23;95787.91;;;33.57;26.14
52797;BME280;38666;43.348;12.584;2022-07-23T17:50:50;95786.00;;;33.59;25.72
52797;BME280;38666;43.348;12.584;2022-07-23T17:53:16;95786.50;;;33.50;25.88
52797;BME280;38666;43.348;12.584;2022-07-23T17:55:41;95788.53;;;33.42;25.54
52797;BME280;38666;43.348;12.584;2022-07-23T17:58:07;95791.09;;;33.32;26.19
52797;BME280;38666;43.348;12.584;2022-07-23T18:00:34;95794.63;;;33.24;25.94
52797;BME280;38666;43.348;12.584;2022-07-23T18:03:01;95795.75;;;33.08;25.85
52797;BME280;38666;43.348;12.584;2022-07-23T18:05:27;95797.28;;;33.09;25.59
52797;BME280;38666;43.348;12.584;2022-07-23T18:07:52;95801.22;;;33.06;25.67
52797;BME280;38666;43.348;12.584;2022-07-23T18:10:18;95802.19;;;32.73;25.68
52797;BME280;38666;43.348;12.584;2022-07-23T18:12:44;95803.34;;;32.57;25.78
52797;BME280;38666;43.348;12.584;2022-07-23T18:15:10;95810.41;;;32.63;25.38
52797;BME280;38666;43.348;12.584;2022-07-23T18:17:36;95799.22;;;32.44;25.34
52797;BME280;38666;43.348;12.584;2022-07-23T18:20:04;95812.50;;;32.36;25.74
52797;BME280;38666;43.348;12.584;2022-07-23T18:22:30;95806.66;;;32.34;25.20
52797;BME280;38666;43.348;12.584;2022-07-23T18:24:55;95812.28;;;32.34;25.00
52797;BME280;38666;43.348;12.584;2022-07-23T18:27:21;95819.78;;;32.31;25.60
52797;BME280;38666;43.348;12.584;2022-07-23T18:29:46;95818.06;;;32.28;25.33
52797;BME280;38666;43.348;12.584;2022-07-23T18:32:12;95818.28;;;32.03;25.56
52797;BME280;38666;43.348;12.584;2022-07-23T18:34:37;95823.38;;;31.91;25.79
52797;BME280;38666;43.348;12.584;2022-07-23T18:37:03;95830.75;;;31.80;25.95
52797;BME280;38666;43.348;12.584;2022-07-23T18:39:28;95824.22;;;31.72;26.06
52797;BME280;38666;43.348;12.584;2022-07-23T18:41:55;95820.75;;;31.66;26.49
52797;BME280;38666;43.348;12.584;2022-07-23T18:44:21;95834.19;;;31.59;26.61
52797;BME280;38666;43.348;12.584;2022-07-23T18:46:46;95830.50;;;31.51;26.56
52797;BME280;38666;43.348;12.584;2022-07-23T18:49:12;95833.94;;;31.44;26.70
52797;BME280;38666;43.348;12.584;2022-07-23T18:51:37;95840.72;;;31.35;26.78
